Nephi, Utah
Current Conditions -  °F | °C
As of 4:50 PM on Saturday 25 Oct 2014 (Local Time) from KPVU Reporting Station
Broken Clouds Broken Clouds  
Wind Chill: 72°   Ceiling: 12000
Heat Index: 72°   Visibility: 15mi
Dew Point: 36°   Wind: 7mph
Humidity: 27%   Direction: 100°E
Pressure: 30"   Gusts: NA
Location:  39.71°N, 111.84°W
Report Text: KPVU 252250Z 10006KT 15SM BKN120 22/02 A3000
Loading
Personal Weather Stations






























Interactive Weather Map
Tropical Storm Tracking
New forecast layout! Learn more

10-Day Weather Forecast

Advertisements
Track Severe Weather on mobile